createdAt,value
2018-01-16T00:00:28.841Z,1.80
2018-01-16T00:02:57.077Z,3.30
2018-01-16T00:05:25.328Z,1.97
2018-01-16T00:07:53.587Z,1.87
2018-01-16T00:10:21.825Z,2.13
2018-01-16T00:12:50.867Z,1.70
2018-01-16T00:15:19.078Z,1.90
2018-01-16T00:17:47.350Z,2.60
2018-01-16T00:20:15.602Z,1.60
2018-01-16T00:22:43.832Z,1.77
2018-01-16T00:25:12.836Z,1.73
2018-01-16T00:27:41.817Z,1.93
2018-01-16T00:30:10.805Z,4.20
2018-01-16T00:32:39.601Z,1.90
2018-01-16T00:35:08.597Z,2.07
2018-01-16T00:37:36.864Z,3.30
2018-01-16T00:40:05.135Z,7.73
2018-01-16T00:42:34.896Z,2.80
2018-01-16T00:45:03.174Z,2.83
2018-01-16T00:47:31.369Z,3.23
2018-01-16T00:49:59.634Z,3.07
2018-01-16T00:52:27.845Z,2.33
2018-01-16T00:54:56.097Z,2.53
2018-01-16T00:57:24.347Z,5.10
2018-01-16T00:59:52.591Z,6.10
2018-01-16T01:02:21.601Z,3.07
2018-01-16T01:04:50.601Z,3.67
2018-01-16T01:07:18.865Z,3.53
2018-01-16T01:09:47.865Z,2.90
2018-01-16T01:12:16.916Z,3.53
2018-01-16T01:14:45.146Z,4.30
2018-01-16T01:17:13.412Z,3.13
2018-01-16T01:19:42.437Z,6.13
2018-01-16T01:22:10.650Z,3.60
2018-01-16T01:24:38.911Z,6.90
2018-01-16T01:27:08.267Z,5.30
2018-01-16T01:29:37.262Z,4.60
2018-01-16T01:32:06.269Z,3.53
2018-01-16T01:34:35.269Z,10.30
2018-01-16T01:37:03.509Z,7.93
2018-01-16T01:39:31.749Z,5.43
2018-01-16T01:41:59.968Z,4.30
2018-01-16T01:44:28.971Z,5.10
2018-01-16T01:46:58.020Z,8.70
2018-01-16T01:49:26.221Z,7.37
2018-01-16T01:51:54.466Z,6.70
2018-01-16T01:54:22.690Z,6.50
2018-01-16T01:56:51.727Z,7.77
2018-01-16T01:59:19.958Z,7.07
2018-01-16T02:01:48.996Z,10.77
2018-01-16T02:04:17.260Z,5.30
2018-01-16T02:06:47.330Z,9.00
2018-01-16T02:09:15.590Z,14.40
2018-01-16T02:11:43.836Z,11.33
2018-01-16T02:14:12.225Z,6.10
2018-01-16T02:16:40.854Z,10.90
2018-01-16T02:19:09.069Z,10.13
2018-01-16T02:21:37.298Z,9.43
2018-01-16T02:24:05.521Z,5.83
2018-01-16T02:26:33.796Z,13.57
2018-01-16T02:29:02.766Z,10.07
2018-01-16T02:31:32.758Z,14.20
2018-01-16T02:34:01.499Z,10.60
2018-01-16T02:36:29.748Z,3.10
2018-01-16T02:38:58.758Z,19.23
2018-01-16T02:41:27.777Z,5.83
2018-01-16T02:43:56.034Z,6.70
2018-01-16T02:46:25.028Z,7.60
2018-01-16T02:48:54.037Z,6.03
2018-01-16T02:51:22.314Z,7.97
2018-01-16T02:53:51.280Z,3.20
2018-01-16T02:56:20.301Z,7.40
2018-01-16T02:58:48.522Z,9.83
2018-01-16T03:01:16.779Z,2.73
2018-01-16T03:03:45.014Z,7.50
2018-01-16T03:06:14.008Z,9.77
2018-01-16T03:08:43.010Z,11.00
2018-01-16T03:11:11.262Z,7.57
2018-01-16T03:13:40.394Z,12.27
2018-01-16T03:16:09.375Z,9.57
2018-01-16T03:18:39.247Z,4.70
2018-01-16T03:21:07.502Z,10.90
2018-01-16T03:23:35.732Z,12.27
2018-01-16T03:26:03.987Z,8.67
2018-01-16T03:28:32.272Z,5.73
2018-01-16T03:31:00.495Z,13.03
2018-01-16T03:33:28.725Z,9.73
2018-01-16T03:35:56.962Z,3.47
2018-01-16T03:38:25.226Z,7.13
2018-01-16T03:40:54.225Z,13.53
2018-01-16T03:43:22.487Z,8.30
2018-01-16T03:45:51.530Z,12.87
2018-01-16T03:48:19.753Z,9.07
2018-01-16T03:50:47.995Z,11.13
2018-01-16T03:53:16.302Z,12.50
2018-01-16T03:55:44.541Z,14.07
2018-01-16T03:58:12.793Z,13.63
2018-01-16T04:00:41.037Z,10.17
2018-01-16T04:03:09.273Z,5.97
2018-01-16T04:05:39.022Z,10.30
2018-01-16T04:08:07.423Z,12.90
2018-01-16T04:10:35.676Z,11.53
2018-01-16T04:13:04.682Z,15.83
2018-01-16T04:15:32.936Z,35.47
2018-01-16T04:18:01.940Z,8.13
2018-01-16T04:20:31.657Z,9.73
2018-01-16T04:23:00.650Z,18.00
2018-01-16T04:25:29.671Z,14.73
2018-01-16T04:27:57.922Z,14.00
2018-01-16T04:30:27.462Z,15.57
2018-01-16T04:32:55.693Z,12.20
2018-01-16T04:35:25.597Z,16.13
2018-01-16T04:37:54.609Z,14.20
2018-01-16T04:40:23.634Z,6.30
2018-01-16T04:42:51.863Z,10.73
2018-01-16T04:45:20.147Z,18.93
2018-01-16T04:47:48.412Z,13.63
2018-01-16T04:50:17.657Z,16.50
2018-01-16T04:52:45.899Z,10.40
2018-01-16T04:55:14.975Z,10.83
2018-01-16T04:57:43.233Z,15.13
2018-01-16T05:00:11.481Z,23.07
2018-01-16T05:02:39.789Z,9.23
2018-01-16T05:05:08.077Z,17.67
2018-01-16T05:07:36.323Z,17.80
2018-01-16T05:10:04.588Z,13.33
2018-01-16T05:12:32.858Z,13.80
2018-01-16T05:15:01.103Z,7.00
2018-01-16T05:17:29.340Z,11.87
2018-01-16T05:19:57.578Z,15.87
2018-01-16T05:22:25.819Z,9.47
2018-01-16T05:24:54.548Z,15.20
2018-01-16T05:27:23.570Z,19.17
2018-01-16T05:29:51.838Z,11.73
2018-01-16T05:32:20.109Z,7.40
2018-01-16T05:34:49.103Z,67.73
2018-01-16T05:37:17.379Z,15.10
2018-01-16T05:39:46.393Z,11.30
2018-01-16T05:42:14.638Z,11.73
2018-01-16T05:44:43.014Z,18.63
2018-01-16T05:47:12.042Z,12.40
2018-01-16T05:49:40.308Z,28.87
2018-01-16T05:52:08.581Z,11.77
2018-01-16T05:54:36.849Z,17.37
2018-01-16T05:57:05.930Z,18.30
2018-01-16T05:59:35.918Z,20.67
2018-01-16T06:02:04.161Z,19.83
2018-01-16T06:04:32.377Z,11.40
2018-01-16T06:07:00.618Z,16.50
2018-01-16T06:09:28.869Z,9.80
2018-01-16T06:11:57.854Z,9.97
2018-01-16T06:14:26.694Z,12.80
2018-01-16T06:16:54.984Z,27.43
2018-01-16T06:19:23.223Z,16.40
2018-01-16T06:21:51.451Z,17.23
2018-01-16T06:24:21.206Z,16.30
2018-01-16T06:26:49.450Z,19.93
2018-01-16T06:29:17.852Z,11.10
2018-01-16T06:31:46.880Z,12.77
2018-01-16T06:34:15.150Z,13.90
2018-01-16T06:36:43.376Z,9.47
2018-01-16T06:39:12.734Z,25.03
2018-01-16T06:41:40.989Z,13.57
2018-01-16T06:44:09.234Z,14.20
2018-01-16T06:46:37.824Z,15.30
2018-01-16T06:49:06.850Z,25.23
2018-01-16T06:51:35.570Z,17.90
2018-01-16T06:54:03.797Z,9.60
2018-01-16T06:56:32.804Z,11.50
2018-01-16T06:59:01.858Z,11.43
2018-01-16T07:01:30.106Z,12.63
2018-01-16T07:03:58.350Z,12.17
2018-01-16T07:06:26.577Z,16.23
2018-01-16T07:08:54.850Z,13.13
2018-01-16T07:11:23.063Z,17.33
2018-01-16T07:13:51.330Z,19.30
2018-01-16T07:16:19.574Z,12.07
2018-01-16T07:18:47.832Z,17.50
2018-01-16T07:21:16.076Z,8.67
2018-01-16T07:23:44.438Z,13.40
2018-01-16T07:26:12.669Z,16.53
2018-01-16T07:28:40.898Z,8.00
2018-01-16T07:31:09.132Z,14.80
2018-01-16T07:33:37.382Z,16.60
2018-01-16T07:36:05.654Z,21.17
2018-01-16T07:38:34.669Z,11.30
2018-01-16T07:41:02.930Z,13.27
2018-01-16T07:43:31.173Z,26.33
2018-01-16T07:46:00.714Z,12.03
2018-01-16T07:48:28.941Z,10.70
2018-01-16T07:50:57.198Z,16.43
2018-01-16T07:53:25.435Z,10.73
2018-01-16T07:55:54.448Z,18.00
2018-01-16T07:58:22.703Z,10.60
2018-01-16T08:00:51.728Z,11.10
2018-01-16T08:03:20.106Z,12.93
2018-01-16T08:05:48.354Z,13.40
2018-01-16T08:08:17.386Z,12.37
2018-01-16T08:10:45.938Z,17.30
2018-01-16T08:13:14.951Z,6.73
2018-01-16T08:15:43.204Z,11.87
2018-01-16T08:18:12.232Z,12.40
2018-01-16T08:20:40.444Z,4.17
2018-01-16T08:23:08.666Z,2.00
2018-01-16T08:25:37.671Z,5.13
2018-01-16T08:28:05.894Z,7.97
2018-01-16T08:30:35.694Z,3.50
2018-01-16T08:33:03.921Z,10.37
2018-01-16T08:35:32.170Z,5.50
2018-01-16T08:38:00.416Z,4.90
2018-01-16T08:40:28.641Z,1.77
2018-01-16T08:42:57.649Z,7.40
2018-01-16T08:45:26.640Z,5.20
2018-01-16T08:47:54.898Z,3.33
2018-01-16T08:50:23.134Z,14.97
2018-01-16T08:52:51.399Z,12.30
2018-01-16T08:55:19.718Z,14.23
2018-01-16T08:57:49.479Z,4.93
2018-01-16T09:00:17.723Z,5.40
2018-01-16T09:02:45.926Z,19.87
2018-01-16T09:05:14.272Z,6.83
2018-01-16T09:07:44.030Z,15.90
2018-01-16T09:10:12.280Z,7.70
2018-01-16T09:12:41.282Z,23.43
2018-01-16T09:15:09.559Z,8.63
2018-01-16T09:17:37.772Z,8.67
2018-01-16T09:20:06.138Z,49.23
2018-01-16T09:22:34.373Z,36.77
2018-01-16T09:25:03.391Z,12.47
2018-01-16T09:27:31.653Z,9.07
2018-01-16T09:29:59.898Z,4.17
2018-01-16T09:32:28.140Z,13.53
2018-01-16T09:34:56.372Z,5.93
2018-01-16T09:37:25.410Z,3.07
2018-01-16T09:39:53.679Z,15.80
2018-01-16T09:42:21.959Z,8.60
2018-01-16T09:44:50.222Z,15.20
2018-01-16T09:47:19.234Z,35.87
2018-01-16T09:49:47.456Z,17.43
2018-01-16T09:52:16.478Z,10.87
2018-01-16T09:54:45.530Z,11.60
2018-01-16T09:57:13.761Z,8.73
2018-01-16T09:59:41.996Z,8.33
2018-01-16T10:02:10.244Z,13.67
2018-01-16T10:04:38.506Z,15.40
2018-01-16T10:07:06.763Z,14.87
2018-01-16T10:09:35.260Z,6.37
2018-01-16T10:12:03.536Z,20.10
2018-01-16T10:14:31.778Z,10.53
2018-01-16T10:17:00.805Z,12.90
2018-01-16T10:19:29.834Z,11.17
2018-01-16T10:21:58.927Z,8.97
2018-01-16T10:24:27.156Z,13.27
2018-01-16T10:26:56.202Z,11.97
2018-01-16T10:29:24.452Z,5.30
2018-01-16T10:31:52.804Z,4.33
2018-01-16T10:34:21.817Z,2.57
2018-01-16T10:36:50.102Z,2.40
2018-01-16T10:39:18.334Z,1.47
2018-01-16T10:41:46.574Z,7.53
2018-01-16T10:44:14.833Z,2.67
2018-01-16T10:46:43.089Z,1.33
2018-01-16T10:49:11.312Z,1.00
2018-01-16T10:51:39.538Z,4.00
2018-01-16T10:54:08.570Z,4.70
2018-01-16T10:56:36.809Z,1.07
2018-01-16T10:59:05.830Z,2.53
2018-01-16T11:01:34.072Z,1.20
2018-01-16T11:04:02.370Z,4.50
2018-01-16T11:06:31.753Z,5.10
2018-01-16T11:09:00.813Z,6.07
2018-01-16T11:11:29.030Z,1.30
2018-01-16T11:13:58.029Z,2.40
2018-01-16T11:16:27.047Z,1.13
2018-01-16T11:18:55.329Z,1.97
2018-01-16T11:21:24.303Z,1.40
2018-01-16T11:23:53.380Z,0.80
2018-01-16T11:26:21.609Z,5.80
2018-01-16T11:28:49.862Z,5.13
2018-01-16T11:31:18.870Z,1.40
2018-01-16T11:33:47.109Z,3.77
2018-01-16T11:36:16.114Z,5.23
2018-01-16T11:38:45.170Z,8.03
2018-01-16T11:41:13.614Z,2.90
2018-01-16T11:43:41.857Z,9.90
2018-01-16T11:46:10.854Z,5.27
2018-01-16T11:48:39.873Z,6.77
2018-01-16T11:51:08.125Z,13.70
2018-01-16T11:53:37.131Z,9.90
2018-01-16T11:56:06.140Z,2.50
2018-01-16T11:58:35.122Z,9.57
2018-01-16T12:01:04.130Z,9.40
2018-01-16T12:03:32.394Z,5.03
2018-01-16T12:06:01.449Z,6.87
2018-01-16T12:08:29.863Z,6.73
2018-01-16T12:10:58.897Z,6.23
2018-01-16T12:13:27.903Z,11.33
2018-01-16T12:15:56.216Z,4.17
2018-01-16T12:18:24.460Z,4.20
2018-01-16T12:20:52.698Z,5.00
2018-01-16T12:23:20.933Z,4.73
2018-01-16T12:25:49.197Z,8.17
2018-01-16T12:28:17.433Z,6.27
2018-01-16T12:30:45.806Z,7.50
2018-01-16T12:33:14.064Z,6.93
2018-01-16T12:35:43.079Z,4.43
2018-01-16T12:38:12.129Z,12.83
2018-01-16T12:40:40.409Z,6.83
2018-01-16T12:43:08.654Z,13.37
2018-01-16T12:45:36.974Z,10.13
2018-01-16T12:48:05.210Z,16.23
2018-01-16T12:50:33.490Z,8.17
2018-01-16T12:53:01.779Z,5.47
2018-01-16T12:55:30.045Z,11.07
2018-01-16T12:57:58.294Z,5.00
2018-01-16T13:00:27.298Z,12.90
2018-01-16T13:02:55.571Z,10.37
2018-01-16T13:05:23.816Z,6.60
2018-01-16T13:07:52.190Z,8.40
2018-01-16T13:10:20.482Z,11.60
2018-01-16T13:12:48.904Z,6.43
2018-01-16T13:15:17.174Z,4.63
2018-01-16T13:17:45.413Z,16.77
2018-01-16T13:20:14.454Z,5.60
2018-01-16T13:22:42.731Z,6.53
2018-01-16T13:25:11.006Z,15.43
2018-01-16T13:27:39.293Z,12.77
2018-01-16T13:30:07.552Z,10.10
2018-01-16T13:32:35.833Z,8.30
2018-01-16T13:35:04.839Z,6.47
2018-01-16T13:37:33.082Z,15.17
2018-01-16T13:40:02.127Z,14.93
2018-01-16T13:42:30.386Z,12.47
2018-01-16T13:44:58.631Z,8.80
2018-01-16T13:47:27.655Z,12.50
2018-01-16T13:49:55.954Z,10.87
2018-01-16T13:52:24.184Z,9.40
2018-01-16T13:54:54.096Z,4.00
2018-01-16T13:57:22.523Z,15.23
2018-01-16T13:59:50.759Z,13.10
2018-01-16T14:02:19.809Z,6.40
2018-01-16T14:04:48.161Z,21.57
2018-01-16T14:07:16.410Z,14.43
2018-01-16T14:09:45.440Z,7.10
2018-01-16T14:12:13.696Z,11.63
2018-01-16T14:14:41.995Z,12.03
2018-01-16T14:17:10.272Z,10.80
2018-01-16T14:19:38.502Z,12.27
2018-01-16T14:22:07.518Z,20.27
2018-01-16T14:24:35.829Z,11.90
2018-01-16T14:27:04.068Z,23.00
2018-01-16T14:29:32.749Z,16.13
2018-01-16T14:32:01.771Z,8.50
2018-01-16T14:34:30.549Z,9.07
2018-01-16T14:36:59.535Z,11.83
2018-01-16T14:39:27.772Z,18.00
2018-01-16T14:41:56.015Z,7.53
2018-01-16T14:44:24.273Z,8.60
2018-01-16T14:46:52.565Z,13.20
2018-01-16T14:49:20.850Z,10.37
2018-01-16T14:51:49.124Z,7.37
2018-01-16T14:54:17.402Z,15.77
2018-01-16T14:56:45.681Z,22.37
2018-01-16T14:59:13.937Z,18.23
2018-01-16T15:01:42.177Z,12.13
2018-01-16T15:04:11.240Z,6.90
2018-01-16T15:06:40.545Z,13.60
2018-01-16T15:09:08.831Z,8.73
2018-01-16T15:11:37.089Z,6.93
2018-01-16T15:14:05.342Z,9.93
2018-01-16T15:16:34.332Z,5.73
2018-01-16T15:19:03.333Z,7.60
2018-01-16T15:21:31.623Z,6.77
2018-01-16T15:23:59.904Z,8.10
2018-01-16T15:26:28.265Z,8.10
2018-01-16T15:28:57.985Z,10.67
2018-01-16T15:31:26.244Z,4.83
2018-01-16T15:33:55.303Z,5.70
2018-01-16T15:36:23.575Z,6.33
2018-01-16T15:38:51.880Z,5.63
2018-01-16T15:41:20.923Z,11.53
2018-01-16T15:43:49.185Z,10.37
2018-01-16T15:46:17.457Z,14.43
2018-01-16T15:48:45.765Z,11.07
2018-01-16T15:51:14.021Z,13.47
2018-01-16T15:53:42.256Z,11.80
2018-01-16T15:56:11.359Z,10.77
2018-01-16T15:58:39.595Z,9.27
2018-01-16T16:01:07.864Z,9.53
2018-01-16T16:03:36.136Z,16.87
2018-01-16T16:06:04.410Z,14.37
2018-01-16T16:08:32.622Z,16.10
2018-01-16T16:11:00.880Z,12.60
2018-01-16T16:13:29.181Z,11.20
2018-01-16T16:15:57.414Z,8.33
2018-01-16T16:18:26.325Z,10.13
2018-01-16T16:20:54.571Z,10.00
2018-01-16T16:23:22.825Z,11.83
2018-01-16T16:25:51.096Z,9.67
2018-01-16T16:28:20.841Z,19.47
2018-01-16T16:30:49.136Z,24.67
2018-01-16T16:33:17.387Z,16.03
2018-01-16T16:35:46.395Z,12.10
2018-01-16T16:38:14.686Z,16.57
2018-01-16T16:40:42.970Z,12.43
2018-01-16T16:43:11.230Z,7.67
2018-01-16T16:45:39.486Z,7.63
2018-01-16T16:48:07.732Z,9.10
2018-01-16T16:50:36.777Z,27.37
2018-01-16T16:53:05.058Z,13.50
2018-01-16T16:55:34.085Z,23.23
2018-01-16T16:58:02.363Z,14.10
2018-01-16T17:00:30.648Z,15.60
2018-01-16T17:02:58.905Z,21.83
2018-01-16T17:05:27.190Z,22.60
2018-01-16T17:07:55.435Z,12.60
2018-01-16T17:10:23.703Z,23.73
2018-01-16T17:12:52.736Z,15.97
2018-01-16T17:15:21.014Z,23.03
2018-01-16T17:17:49.313Z,12.80
2018-01-16T17:20:17.536Z,15.33
2018-01-16T17:22:45.823Z,10.57
2018-01-16T17:25:14.102Z,7.20
2018-01-16T17:27:42.351Z,13.47
2018-01-16T17:30:10.633Z,9.67
2018-01-16T17:32:38.874Z,17.03
2018-01-16T17:35:07.163Z,15.53
2018-01-16T17:37:36.173Z,5.80
2018-01-16T17:40:05.180Z,10.47
2018-01-16T17:42:33.503Z,9.57
2018-01-16T17:45:01.759Z,14.60
2018-01-16T17:47:30.087Z,6.60
2018-01-16T17:49:59.147Z,3.90
2018-01-16T17:52:27.430Z,6.20
2018-01-16T17:54:55.682Z,9.50
2018-01-16T17:57:23.934Z,8.00
2018-01-16T17:59:52.923Z,9.03
2018-01-16T18:02:21.955Z,7.23
2018-01-16T18:04:50.231Z,3.83
2018-01-16T18:07:18.480Z,5.10
2018-01-16T18:09:47.502Z,3.30
2018-01-16T18:12:15.755Z,13.03
2018-01-16T18:14:44.803Z,3.80
2018-01-16T18:17:13.112Z,13.57
2018-01-16T18:19:42.883Z,2.20
2018-01-16T18:22:11.163Z,5.03
2018-01-16T18:24:39.483Z,8.03
2018-01-16T18:27:08.523Z,7.33
2018-01-16T18:29:36.777Z,4.57
2018-01-16T18:32:05.086Z,3.77
2018-01-16T18:34:33.347Z,4.90
2018-01-16T18:37:01.788Z,5.10
2018-01-16T18:39:30.029Z,5.10
2018-01-16T18:41:58.306Z,5.70
2018-01-16T18:44:26.527Z,3.90
2018-01-16T18:46:55.546Z,7.10
2018-01-16T18:49:23.841Z,11.80
2018-01-16T18:51:52.153Z,24.77
2018-01-16T18:54:20.406Z,6.83
2018-01-16T18:56:48.641Z,6.60
2018-01-16T18:59:17.702Z,6.03
2018-01-16T19:01:46.131Z,19.80
2018-01-16T19:04:14.400Z,7.80
2018-01-16T19:06:42.704Z,10.50
2018-01-16T19:09:10.948Z,12.33
2018-01-16T19:11:40.061Z,10.30
2018-01-16T19:14:08.393Z,9.67
2018-01-16T19:16:36.686Z,9.73
2018-01-16T19:19:05.769Z,12.93
2018-01-16T19:21:34.729Z,7.77
2018-01-16T19:24:03.064Z,13.70
2018-01-16T19:26:31.330Z,12.30
2018-01-16T19:29:00.518Z,14.00
2018-01-16T19:31:28.815Z,8.37
2018-01-16T19:33:58.650Z,12.93
2018-01-16T19:36:27.824Z,10.47
2018-01-16T19:38:56.841Z,12.70
2018-01-16T19:41:25.933Z,19.27
2018-01-16T19:43:54.955Z,19.23
2018-01-16T19:46:23.267Z,13.37
2018-01-16T19:48:52.369Z,28.60
2018-01-16T19:51:20.624Z,16.13
2018-01-16T19:53:48.897Z,13.87
2018-01-16T19:56:17.122Z,14.43
2018-01-16T19:58:46.169Z,13.93
2018-01-16T20:01:14.478Z,11.20
2018-01-16T20:03:44.295Z,14.30
2018-01-16T20:06:13.348Z,19.33
2018-01-16T20:08:41.652Z,12.30
2018-01-16T20:11:11.546Z,19.60
2018-01-16T20:13:40.030Z,26.33
2018-01-16T20:16:08.306Z,17.37
2018-01-16T20:18:36.600Z,12.33
2018-01-16T20:21:04.838Z,14.97
2018-01-16T20:23:33.171Z,13.00
2018-01-16T20:26:01.397Z,20.53
2018-01-16T20:28:29.712Z,17.03
2018-01-16T20:30:57.980Z,17.97
2018-01-16T20:33:26.286Z,20.53
2018-01-16T20:35:54.540Z,9.37
2018-01-16T20:38:22.799Z,14.37
2018-01-16T20:40:51.091Z,14.73
2018-01-16T20:43:19.337Z,13.50
2018-01-16T20:45:47.670Z,15.50
2018-01-16T20:48:15.923Z,16.40
2018-01-16T20:50:44.196Z,13.10
2018-01-16T20:53:12.452Z,16.23
2018-01-16T20:55:40.747Z,15.70
2018-01-16T20:58:09.017Z,19.90
2018-01-16T21:00:37.257Z,16.70
2018-01-16T21:03:05.540Z,26.23
2018-01-16T21:05:34.590Z,17.93
2018-01-16T21:08:02.861Z,57.83
2018-01-16T21:10:31.131Z,25.63
2018-01-16T21:12:59.400Z,18.50
2018-01-16T21:15:27.675Z,24.67
2018-01-16T21:17:55.939Z,28.07
2018-01-16T21:20:24.200Z,15.93
2018-01-16T21:22:52.501Z,29.80
2018-01-16T21:25:20.758Z,22.33
2018-01-16T21:27:48.983Z,21.60
2018-01-16T21:30:17.229Z,18.60
2018-01-16T21:32:45.504Z,24.50
2018-01-16T21:35:13.775Z,21.83
2018-01-16T21:37:42.805Z,26.93
2018-01-16T21:40:11.858Z,16.47
2018-01-16T21:42:40.127Z,29.17
2018-01-16T21:45:09.246Z,21.80
2018-01-16T21:47:37.523Z,24.60
2018-01-16T21:50:05.802Z,17.00
2018-01-16T21:52:34.068Z,26.93
2018-01-16T21:55:03.130Z,26.50
2018-01-16T21:57:31.436Z,21.20
2018-01-16T21:59:59.661Z,20.90
2018-01-16T22:02:27.890Z,18.20
2018-01-16T22:04:56.212Z,26.67
2018-01-16T22:07:24.434Z,21.40
2018-01-16T22:09:52.744Z,26.03
2018-01-16T22:12:21.029Z,23.63
2018-01-16T22:14:49.302Z,20.43
2018-01-16T22:17:17.563Z,24.00
2018-01-16T22:19:45.963Z,24.30
2018-01-16T22:22:14.251Z,27.50
2018-01-16T22:24:42.490Z,36.40
2018-01-16T22:27:10.777Z,23.73
2018-01-16T22:29:39.345Z,24.40
2018-01-16T22:32:07.616Z,24.73
2018-01-16T22:34:36.627Z,35.93
2018-01-16T22:37:05.339Z,33.17
2018-01-16T22:39:33.589Z,37.70
2018-01-16T22:42:01.875Z,34.33
2018-01-16T22:44:30.157Z,30.30
2018-01-16T22:46:58.420Z,34.03
2018-01-16T22:49:26.672Z,27.20
2018-01-16T22:51:55.107Z,26.97
2018-01-16T22:54:23.436Z,26.00
2018-01-16T22:56:52.470Z,39.97
2018-01-16T22:59:20.713Z,36.73
2018-01-16T23:01:49.720Z,28.17
2018-01-16T23:04:17.985Z,26.20
2018-01-16T23:06:47.005Z,32.90
2018-01-16T23:09:15.304Z,27.17
2018-01-16T23:11:43.606Z,34.90
2018-01-16T23:14:11.845Z,28.17
2018-01-16T23:16:40.096Z,28.10
2018-01-16T23:19:09.171Z,41.30
2018-01-16T23:21:37.413Z,25.40
2018-01-16T23:24:05.676Z,31.53
2018-01-16T23:26:33.930Z,34.07
2018-01-16T23:29:02.218Z,34.17
2018-01-16T23:31:30.482Z,34.53
2018-01-16T23:33:59.506Z,23.43
2018-01-16T23:36:27.745Z,21.43
2018-01-16T23:38:56.783Z,21.93
2018-01-16T23:41:25.060Z,29.30
2018-01-16T23:43:53.301Z,21.97
2018-01-16T23:46:22.312Z,26.30
2018-01-16T23:48:50.546Z,29.10
2018-01-16T23:51:20.324Z,32.63
2018-01-16T23:53:48.546Z,32.60
2018-01-16T23:56:17.565Z,27.70
2018-01-16T23:58:45.836Z,40.77
